sensor_id;sensor_type;location;lat;lon;timestamp;pressure;altitude;pressure_sealevel;temperature
15544;BMP180;7873;52.230;12.856;2023-08-17T00:01:29;101246.81;;;27.56
15544;BMP180;7873;52.230;12.856;2023-08-17T00:03:56;101244.94;;;27.57
15544;BMP180;7873;52.230;12.856;2023-08-17T00:06:23;101238.69;;;27.56
15544;BMP180;7873;52.230;12.856;2023-08-17T00:08:51;101239.72;;;27.55
15544;BMP180;7873;52.230;12.856;2023-08-17T00:11:18;101243.47;;;27.54
15544;BMP180;7873;52.230;12.856;2023-08-17T00:13:44;101246.16;;;27.54
15544;BMP180;7873;52.230;12.856;2023-08-17T00:16:12;101251.59;;;27.54
15544;BMP180;7873;52.230;12.856;2023-08-17T00:18:39;101252.41;;;27.55
15544;BMP180;7873;52.230;12.856;2023-08-17T00:21:06;101248.88;;;27.54
15544;BMP180;7873;52.230;12.856;2023-08-17T00:23:32;101251.59;;;27.54
15544;BMP180;7873;52.230;12.856;2023-08-17T00:25:59;101246.16;;;27.54
15544;BMP180;7873;52.230;12.856;2023-08-17T00:28:26;101241.78;;;27.53
15544;BMP180;7873;52.230;12.856;2023-08-17T00:30:53;101240.94;;;27.53
15544;BMP180;7873;52.230;12.856;2023-08-17T00:33:21;101222.22;;;27.51
15544;BMP180;7873;52.230;12.856;2023-08-17T00:35:47;101215.94;;;27.51
15544;BMP180;7873;52.230;12.856;2023-08-17T00:38:14;101223.25;;;27.50
15544;BMP180;7873;52.230;12.856;2023-08-17T00:40:41;101215.31;;;27.49
15544;BMP180;7873;52.230;12.856;2023-08-17T00:43:07;101206.34;;;27.48
15544;BMP180;7873;52.230;12.856;2023-08-17T00:45:34;101212.59;;;27.49
15544;BMP180;7873;52.230;12.856;2023-08-17T00:48:01;101214.47;;;27.48
15544;BMP180;7873;52.230;12.856;2023-08-17T00:50:30;101211.75;;;27.48
15544;BMP180;7873;52.230;12.856;2023-08-17T00:52:57;101218.00;;;27.49
15544;BMP180;7873;52.230;12.856;2023-08-17T00:55:24;101217.38;;;27.47
15544;BMP180;7873;52.230;12.856;2023-08-17T00:57:51;101216.53;;;27.46
15544;BMP180;7873;52.230;12.856;2023-08-17T01:00:18;101217.38;;;27.47
15544;BMP180;7873;52.230;12.856;2023-08-17T01:02:46;101212.78;;;27.47
15544;BMP180;7873;52.230;12.856;2023-08-17T01:05:13;101212.78;;;27.47
15544;BMP180;7873;52.230;12.856;2023-08-17T01:07:41;101211.97;;;27.47
15544;BMP180;7873;52.230;12.856;2023-08-17T01:10:08;101210.06;;;27.47
15544;BMP180;7873;52.230;12.856;2023-08-17T01:12:38;101207.38;;;27.47
15544;BMP180;7873;52.230;12.856;2023-08-17T01:15:10;101213.63;;;27.48
15544;BMP180;7873;52.230;12.856;2023-08-17T01:17:41;101205.69;;;27.46
15544;BMP180;7873;52.230;12.856;2023-08-17T01:20:10;101203.84;;;27.47
15544;BMP180;7873;52.230;12.856;2023-08-17T01:22:42;101208.41;;;27.46
15544;BMP180;7873;52.230;12.856;2023-08-17T01:25:12;101213.81;;;27.46
15544;BMP180;7873;52.230;12.856;2023-08-17T01:27:41;101208.63;;;27.45
15544;BMP180;7873;52.230;12.856;2023-08-17T01:30:11;101213.19;;;27.44
15544;BMP180;7873;52.230;12.856;2023-08-17T01:32:41;101214.22;;;27.43
15544;BMP180;7873;52.230;12.856;2023-08-17T01:35:15;101215.25;;;27.42
15544;BMP180;7873;52.230;12.856;2023-08-17T01:37:42;101216.28;;;27.41
15544;BMP180;7873;52.230;12.856;2023-08-17T01:40:10;101211.91;;;27.40
15544;BMP180;7873;52.230;12.856;2023-08-17T01:42:41;101218.34;;;27.39
15544;BMP180;7873;52.230;12.856;2023-08-17T01:45:08;101209.41;;;27.39
15544;BMP180;7873;52.230;12.856;2023-08-17T01:47:35;101205.00;;;27.38
15544;BMP180;7873;52.230;12.856;2023-08-17T01:50:02;101204.19;;;27.38
15544;BMP180;7873;52.230;12.856;2023-08-17T01:52:29;101200.63;;;27.37
15544;BMP180;7873;52.230;12.856;2023-08-17T01:54:56;101197.91;;;27.37
15544;BMP180;7873;52.230;12.856;2023-08-17T01:57:22;101198.75;;;27.38
15544;BMP180;7873;52.230;12.856;2023-08-17T01:59:50;101196.25;;;27.36
15544;BMP180;7873;52.230;12.856;2023-08-17T02:02:17;101193.53;;;27.36
15544;BMP180;7873;52.230;12.856;2023-08-17T02:04:44;101192.72;;;27.36
15544;BMP180;7873;52.230;12.856;2023-08-17T02:07:10;101200.84;;;27.36
15544;BMP180;7873;52.230;12.856;2023-08-17T02:09:37;101203.31;;;27.37
15544;BMP180;7873;52.230;12.856;2023-08-17T02:12:04;101200.84;;;27.36
15544;BMP180;7873;52.230;12.856;2023-08-17T02:14:31;101198.94;;;27.36
15544;BMP180;7873;52.230;12.856;2023-08-17T02:16:59;101189.38;;;27.34
15544;BMP180;7873;52.230;12.856;2023-08-17T02:19:26;101196.63;;;27.33
15544;BMP180;7873;52.230;12.856;2023-08-17T02:21:53;101196.63;;;27.33
15544;BMP180;7873;52.230;12.856;2023-08-17T02:24:19;101202.03;;;27.33
15544;BMP180;7873;52.230;12.856;2023-08-17T02:26:46;101199.53;;;27.32
15544;BMP180;7873;52.230;12.856;2023-08-17T02:29:13;101196.84;;;27.32
15544;BMP180;7873;52.230;12.856;2023-08-17T02:31:39;101196.00;;;27.31
15544;BMP180;7873;52.230;12.856;2023-08-17T02:34:07;101200.59;;;27.31
15544;BMP180;7873;52.230;12.856;2023-08-17T02:36:35;101192.47;;;27.31
15544;BMP180;7873;52.230;12.856;2023-08-17T02:39:01;101196.22;;;27.30
15544;BMP180;7873;52.230;12.856;2023-08-17T02:41:29;101200.59;;;27.31
15544;BMP180;7873;52.230;12.856;2023-08-17T02:43:57;101198.91;;;27.30
15544;BMP180;7873;52.230;12.856;2023-08-17T02:46:24;101203.47;;;27.29
15544;BMP180;7873;52.230;12.856;2023-08-17T02:48:50;101200.75;;;27.29
15544;BMP180;7873;52.230;12.856;2023-08-17T02:51:19;101208.88;;;27.29
15544;BMP180;7873;52.230;12.856;2023-08-17T02:53:46;101197.22;;;27.29
15544;BMP180;7873;52.230;12.856;2023-08-17T02:56:13;101190.78;;;27.30
15544;BMP180;7873;52.230;12.856;2023-08-17T02:58:39;101181.66;;;27.31
15544;BMP180;7873;52.230;12.856;2023-08-17T03:01:06;101187.88;;;27.31
15544;BMP180;7873;52.230;12.856;2023-08-17T03:03:33;101191.44;;;27.32
15544;BMP180;7873;52.230;12.856;2023-08-17T03:06:00;101190.19;;;27.34
15544;BMP180;7873;52.230;12.856;2023-08-17T03:08:28;101187.09;;;27.37
15544;BMP180;7873;52.230;12.856;2023-08-17T03:10:55;101188.75;;;27.38
15544;BMP180;7873;52.230;12.856;2023-08-17T03:13:22;101186.91;;;27.38
15544;BMP180;7873;52.230;12.856;2023-08-17T03:15:47;101196.06;;;27.38
15544;BMP180;7873;52.230;12.856;2023-08-17T03:18:14;101190.66;;;27.38
15544;BMP180;7873;52.230;12.856;2023-08-17T03:20:41;101196.06;;;27.38
15544;BMP180;7873;52.230;12.856;2023-08-17T03:23:07;101193.34;;;27.38
15544;BMP180;7873;52.230;12.856;2023-08-17T03:25:36;101189.78;;;27.37
15544;BMP180;7873;52.230;12.856;2023-08-17T03:28:03;101195.22;;;27.37
15544;BMP180;7873;52.230;12.856;2023-08-17T03:30:30;101201.66;;;27.36
15544;BMP180;7873;52.230;12.856;2023-08-17T03:32:57;101202.44;;;27.30
15544;BMP180;7873;52.230;12.856;2023-08-17T03:35:23;101193.44;;;27.23
15544;BMP180;7873;52.230;12.856;2023-08-17T03:37:50;101186.28;;;27.16
15544;BMP180;7873;52.230;12.856;2023-08-17T03:40:17;101182.66;;;27.09
15544;BMP180;7873;52.230;12.856;2023-08-17T03:42:45;101191.78;;;27.08
15544;BMP180;7873;52.230;12.856;2023-08-17T03:45:11;101189.75;;;27.10
15544;BMP180;7873;52.230;12.856;2023-08-17T03:47:38;101183.13;;;27.12
15544;BMP180;7873;52.230;12.856;2023-08-17T03:50:05;101185.06;;;27.18
15544;BMP180;7873;52.230;12.856;2023-08-17T03:52:32;101180.47;;;27.19
15544;BMP180;7873;52.230;12.856;2023-08-17T03:54:59;101186.09;;;27.17
15544;BMP180;7873;52.230;12.856;2023-08-17T03:57:26;101181.34;;;27.19
15544;BMP180;7873;52.230;12.856;2023-08-17T03:59:54;101177.78;;;27.19
15544;BMP180;7873;52.230;12.856;2023-08-17T04:02:20;101176.69;;;27.13
15544;BMP180;7873;52.230;12.856;2023-08-17T04:04:47;101170.56;;;27.05
15544;BMP180;7873;52.230;12.856;2023-08-17T04:07:20;101178.97;;;26.95
15544;BMP180;7873;52.230;12.856;2023-08-17T04:09:47;101178.75;;;26.76
15544;BMP180;7873;52.230;12.856;2023-08-17T04:12:14;101182.09;;;26.78
15544;BMP180;7873;52.230;12.856;2023-08-17T04:14:40;101190.88;;;26.65
15544;BMP180;7873;52.230;12.856;2023-08-17T04:17:08;101182.13;;;26.63
15544;BMP180;7873;52.230;12.856;2023-08-17T04:19:35;101192.56;;;26.66
15544;BMP180;7873;52.230;12.856;2023-08-17T04:22:02;101187.16;;;26.66
15544;BMP180;7873;52.230;12.856;2023-08-17T04:24:28;101187.75;;;26.62
15544;BMP180;7873;52.230;12.856;2023-08-17T04:26:55;101180.97;;;26.51
15544;BMP180;7873;52.230;12.856;2023-08-17T04:29:23;101189.88;;;26.52
15544;BMP180;7873;52.230;12.856;2023-08-17T04:31:50;101195.66;;;26.49
15544;BMP180;7873;52.230;12.856;2023-08-17T04:34:18;101191.16;;;26.41
15544;BMP180;7873;52.230;12.856;2023-08-17T04:36:44;101202.56;;;26.22
15544;BMP180;7873;52.230;12.856;2023-08-17T04:39:11;101203.94;;;26.33
15544;BMP180;7873;52.230;12.856;2023-08-17T04:41:38;101194.63;;;26.35
15544;BMP180;7873;52.230;12.856;2023-08-17T04:44:05;101205.69;;;26.40
15544;BMP180;7873;52.230;12.856;2023-08-17T04:46:32;101215.19;;;26.36
15544;BMP180;7873;52.230;12.856;2023-08-17T04:48:58;101239.97;;;26.40
15544;BMP180;7873;52.230;12.856;2023-08-17T04:51:26;101296.97;;;26.45
15544;BMP180;7873;52.230;12.856;2023-08-17T04:53:53;101316.25;;;26.42
15544;BMP180;7873;52.230;12.856;2023-08-17T04:56:20;101318.19;;;26.33
15544;BMP180;7873;52.230;12.856;2023-08-17T04:58:46;101330.56;;;26.28
15544;BMP180;7873;52.230;12.856;2023-08-17T05:01:13;101328.44;;;26.23
15544;BMP180;7873;52.230;12.856;2023-08-17T05:03:40;101340.59;;;26.19
15544;BMP180;7873;52.230;12.856;2023-08-17T05:06:07;101349.28;;;26.15
15544;BMP180;7873;52.230;12.856;2023-08-17T05:08:35;101354.66;;;26.15
15544;BMP180;7873;52.230;12.856;2023-08-17T05:11:02;101353.16;;;26.12
15544;BMP180;7873;52.230;12.856;2023-08-17T05:13:28;101358.56;;;26.12
15544;BMP180;7873;52.230;12.856;2023-08-17T05:15:55;101348.41;;;26.14
15544;BMP180;7873;52.230;12.856;2023-08-17T05:18:22;101355.78;;;26.20
15544;BMP180;7873;52.230;12.856;2023-08-17T05:20:48;101355.97;;;26.19
15544;BMP180;7873;52.230;12.856;2023-08-17T05:23:15;101351.06;;;26.22
15544;BMP180;7873;52.230;12.856;2023-08-17T05:25:45;101349.84;;;26.25
15544;BMP180;7873;52.230;12.856;2023-08-17T05:28:12;101345.94;;;26.27
15544;BMP180;7873;52.230;12.856;2023-08-17T05:30:39;101323.13;;;26.30
15544;BMP180;7873;52.230;12.856;2023-08-17T05:33:05;101303.03;;;26.32
15544;BMP180;7873;52.230;12.856;2023-08-17T05:35:32;101281.03;;;26.35
15544;BMP180;7873;52.230;12.856;2023-08-17T05:37:59;101294.53;;;26.35
15544;BMP180;7873;52.230;12.856;2023-08-17T05:40:26;101306.19;;;26.36
15544;BMP180;7873;52.230;12.856;2023-08-17T05:42:54;101293.72;;;26.35
15544;BMP180;7873;52.230;12.856;2023-08-17T05:45:20;101298.09;;;26.36
15544;BMP180;7873;52.230;12.856;2023-08-17T05:47:47;101302.66;;;26.35
15544;BMP180;7873;52.230;12.856;2023-08-17T05:50:14;101294.53;;;26.35
15544;BMP180;7873;52.230;12.856;2023-08-17T05:52:41;101298.09;;;26.36
15544;BMP180;7873;52.230;12.856;2023-08-17T05:55:08;101299.13;;;26.35
15544;BMP180;7873;52.230;12.856;2023-08-17T05:57:34;101298.28;;;26.34
15544;BMP180;7873;52.230;12.856;2023-08-17T06:00:03;101300.16;;;26.34
15544;BMP180;7873;52.230;12.856;2023-08-17T06:02:30;101299.28;;;26.33
15544;BMP180;7873;52.230;12.856;2023-08-17T06:04:56;101291.03;;;26.35
15544;BMP180;7873;52.230;12.856;2023-08-17T06:07:23;101280.22;;;26.35
15544;BMP180;7873;52.230;12.856;2023-08-17T06:09:50;101263.00;;;26.36
15544;BMP180;7873;52.230;12.856;2023-08-17T06:12:16;101250.31;;;26.36
15544;BMP180;7873;52.230;12.856;2023-08-17T06:14:44;101251.16;;;26.37
15544;BMP180;7873;52.230;12.856;2023-08-17T06:17:12;101251.16;;;26.37
15544;BMP180;7873;52.230;12.856;2023-08-17T06:19:39;101270.72;;;26.39
15544;BMP180;7873;52.230;12.856;2023-08-17T06:22:06;101272.56;;;26.38
15544;BMP180;7873;52.230;12.856;2023-08-17T06:24:32;101263.63;;;26.38
15544;BMP180;7873;52.230;12.856;2023-08-17T06:26:59;101262.63;;;26.39
15544;BMP180;7873;52.230;12.856;2023-08-17T06:29:26;101268.00;;;26.39
15544;BMP180;7873;52.230;12.856;2023-08-17T06:31:52;101273.41;;;26.39
15544;BMP180;7873;52.230;12.856;2023-08-17T06:34:21;101269.88;;;26.38
15544;BMP180;7873;52.230;12.856;2023-08-17T06:36:57;101267.16;;;26.38
15544;BMP180;7873;52.230;12.856;2023-08-17T06:39:23;101274.25;;;26.39
15544;BMP180;7873;52.230;12.856;2023-08-17T06:41:50;101282.53;;;26.38
15544;BMP180;7873;52.230;12.856;2023-08-17T06:44:17;101286.28;;;26.37
15544;BMP180;7873;52.230;12.856;2023-08-17T06:46:43;101297.06;;;26.37
15544;BMP180;7873;52.230;12.856;2023-08-17T06:49:11;101309.56;;;26.38
15544;BMP180;7873;52.230;12.856;2023-08-17T06:51:39;101295.41;;;26.36
15544;BMP180;7873;52.230;12.856;2023-08-17T06:54:07;101272.94;;;26.35
15544;BMP180;7873;52.230;12.856;2023-08-17T06:56:34;101242.22;;;26.36
15544;BMP180;7873;52.230;12.856;2023-08-17T06:59:01;101224.16;;;26.37
15544;BMP180;7873;52.230;12.856;2023-08-17T07:01:28;101206.28;;;26.36
15544;BMP180;7873;52.230;12.856;2023-08-17T07:03:55;101208.78;;;26.37
15544;BMP180;7873;52.230;12.856;2023-08-17T07:06:22;101197.16;;;26.37
15544;BMP180;7873;52.230;12.856;2023-08-17T07:08:50;101190.91;;;26.36
15544;BMP180;7873;52.230;12.856;2023-08-17T07:11:18;101192.56;;;26.37
15544;BMP180;7873;52.230;12.856;2023-08-17T07:13:44;101204.22;;;26.38
15544;BMP180;7873;52.230;12.856;2023-08-17T07:16:11;101205.03;;;26.38
15544;BMP180;7873;52.230;12.856;2023-08-17T07:18:38;101196.13;;;26.38
15544;BMP180;7873;52.230;12.856;2023-08-17T07:21:04;101183.44;;;26.38
15544;BMP180;7873;52.230;12.856;2023-08-17T07:23:31;101181.78;;;26.37
15544;BMP180;7873;52.230;12.856;2023-08-17T07:25:59;101172.84;;;26.37
15544;BMP180;7873;52.230;12.856;2023-08-17T07:28:26;101177.41;;;26.36
15544;BMP180;7873;52.230;12.856;2023-08-17T07:30:52;101185.50;;;26.36
15544;BMP180;7873;52.230;12.856;2023-08-17T07:33:19;101187.38;;;26.36
15544;BMP180;7873;52.230;12.856;2023-08-17T07:35:46;101180.09;;;26.36
15544;BMP180;7873;52.230;12.856;2023-08-17T07:38:12;101170.97;;;26.37
15544;BMP180;7873;52.230;12.856;2023-08-17T07:40:39;101163.06;;;26.36
15544;BMP180;7873;52.230;12.856;2023-08-17T07:43:09;101157.47;;;26.37
15544;BMP180;7873;52.230;12.856;2023-08-17T07:45:36;101155.41;;;26.39
15544;BMP180;7873;52.230;12.856;2023-08-17T07:48:03;101154.38;;;26.40
15544;BMP180;7873;52.230;12.856;2023-08-17T07:50:30;101153.56;;;26.40
15544;BMP180;7873;52.230;12.856;2023-08-17T07:52:56;101158.97;;;26.40
15544;BMP180;7873;52.230;12.856;2023-08-17T07:55:23;101157.94;;;26.41
15544;BMP180;7873;52.230;12.856;2023-08-17T07:57:50;101168.53;;;26.42
15544;BMP180;7873;52.230;12.856;2023-08-17T08:00:18;101175.59;;;26.43
15544;BMP180;7873;52.230;12.856;2023-08-17T08:02:46;101177.47;;;26.43
15544;BMP180;7873;52.230;12.856;2023-08-17T08:05:12;101166.69;;;26.43
15544;BMP180;7873;52.230;12.856;2023-08-17T08:07:39;101178.13;;;26.45
15544;BMP180;7873;52.230;12.856;2023-08-17T08:10:06;101176.47;;;26.44
15544;BMP180;7873;52.230;12.856;2023-08-17T08:12:33;101188.94;;;26.45
15544;BMP180;7873;52.230;12.856;2023-08-17T08:15:00;101189.97;;;26.44
15544;BMP180;7873;52.230;12.856;2023-08-17T08:17:28;101183.72;;;26.43
15544;BMP180;7873;52.230;12.856;2023-08-17T08:19:55;101192.84;;;26.42
15544;BMP180;7873;52.230;12.856;2023-08-17T08:22:22;101190.13;;;26.42
15544;BMP180;7873;52.230;12.856;2023-08-17T08:24:49;101194.72;;;26.42
15544;BMP180;7873;52.230;12.856;2023-08-17T08:27:16;101197.41;;;26.42
15544;BMP180;7873;52.230;12.856;2023-08-17T08:29:42;101198.25;;;26.42
15544;BMP180;7873;52.230;12.856;2023-08-17T08:32:09;101190.13;;;26.42
15544;BMP180;7873;52.230;12.856;2023-08-17T08:34:37;101195.53;;;26.42
15544;BMP180;7873;52.230;12.856;2023-08-17T08:37:04;101205.31;;;26.43
15544;BMP180;7873;52.230;12.856;2023-08-17T08:39:30;101191.00;;;26.43
15544;BMP180;7873;52.230;12.856;2023-08-17T08:41:57;101195.38;;;26.44
15544;BMP180;7873;52.230;12.856;2023-08-17T08:44:24;101195.16;;;26.45
15544;BMP180;7873;52.230;12.856;2023-08-17T08:46:54;101188.75;;;26.46
15544;BMP180;7873;52.230;12.856;2023-08-17T08:49:23;101186.88;;;26.47
15544;BMP180;7873;52.230;12.856;2023-08-17T08:51:51;101183.34;;;26.46
15544;BMP180;7873;52.230;12.856;2023-08-17T08:54:20;101182.38;;;26.47
15544;BMP180;7873;52.230;12.856;2023-08-17T08:56:53;101186.88;;;26.47
15544;BMP180;7873;52.230;12.856;2023-08-17T08:59:21;101179.66;;;26.47
15544;BMP180;7873;52.230;12.856;2023-08-17T09:01:48;101192.28;;;26.47
15544;BMP180;7873;52.230;12.856;2023-08-17T09:04:15;101194.16;;;26.46
15544;BMP180;7873;52.230;12.856;2023-08-17T09:06:43;101196.00;;;26.46
15544;BMP180;7873;52.230;12.856;2023-08-17T09:09:11;101197.84;;;26.45
15544;BMP180;7873;52.230;12.856;2023-08-17T09:11:41;101196.00;;;26.46
15544;BMP180;7873;52.230;12.856;2023-08-17T09:14:07;101201.28;;;26.47
15544;BMP180;7873;52.230;12.856;2023-08-17T09:16:34;101199.38;;;26.48
15544;BMP180;7873;52.230;12.856;2023-08-17T09:19:01;101194.00;;;26.48
15544;BMP180;7873;52.230;12.856;2023-08-17T09:21:31;101198.38;;;26.49
15544;BMP180;7873;52.230;12.856;2023-08-17T09:23:58;101202.56;;;26.51
15544;BMP180;7873;52.230;12.856;2023-08-17T09:26:30;101193.22;;;26.54
15544;BMP180;7873;52.230;12.856;2023-08-17T09:28:57;101189.50;;;26.55
15544;BMP180;7873;52.230;12.856;2023-08-17T09:31:24;101183.06;;;26.56
15544;BMP180;7873;52.230;12.856;2023-08-17T09:33:51;101191.84;;;26.58
15544;BMP180;7873;52.230;12.856;2023-08-17T09:36:20;101188.94;;;26.59
15544;BMP180;7873;52.230;12.856;2023-08-17T09:38:47;101192.50;;;26.60
15544;BMP180;7873;52.230;12.856;2023-08-17T09:41:15;101190.63;;;26.60
15544;BMP180;7873;52.230;12.856;2023-08-17T09:43:43;101181.47;;;26.61
15544;BMP180;7873;52.230;12.856;2023-08-17T09:46:10;101180.28;;;26.64
15544;BMP180;7873;52.230;12.856;2023-08-17T09:48:37;101181.47;;;26.61
15544;BMP180;7873;52.230;12.856;2023-08-17T09:51:05;101177.97;;;26.61
15544;BMP180;7873;52.230;12.856;2023-08-17T09:53:34;101177.09;;;26.60
15544;BMP180;7873;52.230;12.856;2023-08-17T09:56:02;101180.66;;;26.61
15544;BMP180;7873;52.230;12.856;2023-08-17T09:58:30;101180.84;;;26.59
15544;BMP180;7873;52.230;12.856;2023-08-17T10:00:58;101182.50;;;26.60
15544;BMP180;7873;52.230;12.856;2023-08-17T10:03:29;101179.63;;;26.62
15544;BMP180;7873;52.230;12.856;2023-08-17T10:06:00;101168.81;;;26.62
15544;BMP180;7873;52.230;12.856;2023-08-17T10:08:30;101170.69;;;26.61
15544;BMP180;7873;52.230;12.856;2023-08-17T10:10:57;101168.81;;;26.62
15544;BMP180;7873;52.230;12.856;2023-08-17T10:13:28;101165.09;;;26.63
15544;BMP180;7873;52.230;12.856;2023-08-17T10:16:02;101160.50;;;26.63
15544;BMP180;7873;52.230;12.856;2023-08-17T10:18:36;101161.38;;;26.64
15544;BMP180;7873;52.230;12.856;2023-08-17T10:21:07;101159.31;;;26.66
15544;BMP180;7873;52.230;12.856;2023-08-17T10:23:37;101162.00;;;26.66
15544;BMP180;7873;52.230;12.856;2023-08-17T10:26:05;101155.56;;;26.67
15544;BMP180;7873;52.230;12.856;2023-08-17T10:28:34;101160.97;;;26.67
15544;BMP180;7873;52.230;12.856;2023-08-17T10:31:02;101166.38;;;26.67
15544;BMP180;7873;52.230;12.856;2023-08-17T10:33:29;101161.81;;;26.67
15544;BMP180;7873;52.230;12.856;2023-08-17T10:35:56;101160.97;;;26.67
15544;BMP180;7873;52.230;12.856;2023-08-17T10:38:23;101157.25;;;26.68
15544;BMP180;7873;52.230;12.856;2023-08-17T10:41:08;101162.66;;;26.68
15544;BMP180;7873;52.230;12.856;2023-08-17T10:46:32;101165.34;;;26.68
15544;BMP180;7873;52.230;12.856;2023-08-17T10:49:02;101162.66;;;26.68
15544;BMP180;7873;52.230;12.856;2023-08-17T10:51:29;101153.69;;;26.67
15544;BMP180;7873;52.230;12.856;2023-08-17T10:53:58;101151.00;;;26.67
15544;BMP180;7873;52.230;12.856;2023-08-17T10:56:27;101156.22;;;26.69
15544;BMP180;7873;52.230;12.856;2023-08-17T10:58:54;101153.53;;;26.69
15544;BMP180;7873;52.230;12.856;2023-08-17T11:01:33;101152.50;;;26.70
15544;BMP180;7873;52.230;12.856;2023-08-17T11:04:10;101153.34;;;26.70
15544;BMP180;7873;52.230;12.856;2023-08-17T11:06:37;101155.19;;;26.70
15544;BMP180;7873;52.230;12.856;2023-08-17T11:09:06;101151.47;;;26.71
15544;BMP180;7873;52.230;12.856;2023-08-17T11:11:33;101145.03;;;26.72
15544;BMP180;7873;52.230;12.856;2023-08-17T11:14:00;101152.09;;;26.73
15544;BMP180;7873;52.230;12.856;2023-08-17T11:16:26;101153.78;;;26.74
15544;BMP180;7873;52.230;12.856;2023-08-17T11:18:54;101149.41;;;26.73
15544;BMP180;7873;52.230;12.856;2023-08-17T11:21:24;101151.06;;;26.74
15544;BMP180;7873;52.230;12.856;2023-08-17T11:23:51;101146.91;;;26.71
15544;BMP180;7873;52.230;12.856;2023-08-17T11:26:18;101149.41;;;26.73
15544;BMP180;7873;52.230;12.856;2023-08-17T11:28:45;101152.94;;;26.73
15544;BMP180;7873;52.230;12.856;2023-08-17T11:31:12;101144.84;;;26.73
15544;BMP180;7873;52.230;12.856;2023-08-17T11:33:40;101148.59;;;26.72
15544;BMP180;7873;52.230;12.856;2023-08-17T11:36:08;101145.03;;;26.72
15544;BMP180;7873;52.230;12.856;2023-08-17T11:38:36;101146.69;;;26.73
15544;BMP180;7873;52.230;12.856;2023-08-17T11:41:04;101143.19;;;26.72
15544;BMP180;7873;52.230;12.856;2023-08-17T11:43:32;101149.41;;;26.73
15544;BMP180;7873;52.230;12.856;2023-08-17T11:45:59;101151.28;;;26.72
15544;BMP180;7873;52.230;12.856;2023-08-17T11:48:27;101147.56;;;26.73
15544;BMP180;7873;52.230;12.856;2023-08-17T11:50:54;101143.19;;;26.72
15544;BMP180;7873;52.230;12.856;2023-08-17T11:53:22;101148.38;;;26.74
15544;BMP180;7873;52.230;12.856;2023-08-17T11:55:49;101149.22;;;26.74
15544;BMP180;7873;52.230;12.856;2023-08-17T11:58:16;101142.78;;;26.75
15544;BMP180;7873;52.230;12.856;2023-08-17T12:00:44;101141.94;;;26.75
15544;BMP180;7873;52.230;12.856;2023-08-17T12:03:13;101139.25;;;26.75
15544;BMP180;7873;52.230;12.856;2023-08-17T12:05:41;101135.50;;;26.76
15544;BMP180;7873;52.230;12.856;2023-08-17T12:08:08;101133.66;;;26.76
15544;BMP180;7873;52.230;12.856;2023-08-17T12:10:36;101133.66;;;26.76
15544;BMP180;7873;52.230;12.856;2023-08-17T12:13:03;101132.81;;;26.76
15544;BMP180;7873;52.230;12.856;2023-08-17T12:15:30;101134.47;;;26.77
15544;BMP180;7873;52.230;12.856;2023-08-17T12:17:59;101125.34;;;26.78
15544;BMP180;7873;52.230;12.856;2023-08-17T12:20:26;101122.63;;;26.78
15544;BMP180;7873;52.230;12.856;2023-08-17T12:22:53;101126.19;;;26.78
15544;BMP180;7873;52.230;12.856;2023-08-17T12:25:20;101119.94;;;26.78
15544;BMP180;7873;52.230;12.856;2023-08-17T12:27:49;101128.03;;;26.78
15544;BMP180;7873;52.230;12.856;2023-08-17T12:30:25;101126.19;;;26.78
15544;BMP180;7873;52.230;12.856;2023-08-17T12:32:52;101121.59;;;26.79
15544;BMP180;7873;52.230;12.856;2023-08-17T12:35:19;101126.19;;;26.78
15544;BMP180;7873;52.230;12.856;2023-08-17T12:37:47;101123.47;;;26.78
15544;BMP180;7873;52.230;12.856;2023-08-17T12:40:13;101117.88;;;26.80
15544;BMP180;7873;52.230;12.856;2023-08-17T12:42:41;101106.06;;;26.81
15544;BMP180;7873;52.230;12.856;2023-08-17T12:45:09;101095.25;;;26.81
15544;BMP180;7873;52.230;12.856;2023-08-17T12:47:36;101105.84;;;26.82
15544;BMP180;7873;52.230;12.856;2023-08-17T12:50:03;101097.56;;;26.84
15544;BMP180;7873;52.230;12.856;2023-08-17T12:52:30;101105.47;;;26.85
15544;BMP180;7873;52.230;12.856;2023-08-17T12:54:57;101107.97;;;26.87
15544;BMP180;7873;52.230;12.856;2023-08-17T12:57:24;101105.06;;;26.88
15544;BMP180;7873;52.230;12.856;2023-08-17T12:59:52;101099.50;;;26.90
15544;BMP180;7873;52.230;12.856;2023-08-17T13:02:21;101107.59;;;26.90
15544;BMP180;7873;52.230;12.856;2023-08-17T13:04:48;101104.91;;;26.90
15544;BMP180;7873;52.230;12.856;2023-08-17T13:07:14;101104.03;;;26.89
15544;BMP180;7873;52.230;12.856;2023-08-17T13:09:42;101104.03;;;26.89
15544;BMP180;7873;52.230;12.856;2023-08-17T13:12:10;101104.03;;;26.89
15544;BMP180;7873;52.230;12.856;2023-08-17T13:14:37;101103.22;;;26.89
15544;BMP180;7873;52.230;12.856;2023-08-17T13:17:04;101109.44;;;26.89
15544;BMP180;7873;52.230;12.856;2023-08-17T13:19:31;101100.53;;;26.89
15544;BMP180;7873;52.230;12.856;2023-08-17T13:21:58;101104.25;;;26.88
15544;BMP180;7873;52.230;12.856;2023-08-17T13:24:25;101092.59;;;26.87
15544;BMP180;7873;52.230;12.856;2023-08-17T13:26:51;101092.59;;;26.87
15544;BMP180;7873;52.230;12.856;2023-08-17T13:29:19;101088.22;;;26.86
15544;BMP180;7873;52.230;12.856;2023-08-17T13:31:46;101090.91;;;26.86
15544;BMP180;7873;52.230;12.856;2023-08-17T13:34:14;101090.91;;;26.86
15544;BMP180;7873;52.230;12.856;2023-08-17T13:36:42;101092.59;;;26.87
15544;BMP180;7873;52.230;12.856;2023-08-17T13:39:08;101089.88;;;26.87
15544;BMP180;7873;52.230;12.856;2023-08-17T13:41:35;101082.00;;;26.86
15544;BMP180;7873;52.230;12.856;2023-08-17T13:44:02;101085.72;;;26.85
15544;BMP180;7873;52.230;12.856;2023-08-17T13:46:29;101085.50;;;26.86
15544;BMP180;7873;52.230;12.856;2023-08-17T13:48:56;101089.06;;;26.87
15544;BMP180;7873;52.230;12.856;2023-08-17T13:51:22;101079.72;;;26.89
15544;BMP180;7873;52.230;12.856;2023-08-17T13:53:50;101079.34;;;26.92
15544;BMP180;7873;52.230;12.856;2023-08-17T13:56:17;101084.38;;;26.95
15544;BMP180;7873;52.230;12.856;2023-08-17T13:58:44;101074.59;;;26.94
15544;BMP180;7873;52.230;12.856;2023-08-17T14:01:10;101082.69;;;26.94